Time;durP1;ratioP1;P1;durP2;ratioP2;P2;SDS_P1;SDS_P2;PMS_P1;PMS_P2;Temp;Humidity;BMP_temperature;BMP_pressure;BME280_temperature;BME280_humidity;BME280_pressure;Samples;Min_cycle;Max_cycle;Signal;HPM_P1;HPM_P2
2023/07/08 00:01:15;;;;;;;9.52;5.22;;;;;;;;;;5050715;28;20546;-69
2023/07/08 00:03:41;;;;;;;8.80;4.40;;;;;;;;;;5053826;28;20080;-70
2023/07/08 00:06:12;;;;;;;9.55;4.90;;;;;;;;;;5058850;28;20037;-71
2023/07/08 00:08:38;;;;;;;5.28;4.32;;;;;;;;;;5034490;28;20194;-70
2023/07/08 00:11:10;;;;;;;7.78;4.70;;;;;;;;;;5046941;28;20125;-70
2023/07/08 00:13:36;;;;;;;12.13;5.10;;;;;;;;;;5047185;28;20021;-70
2023/07/08 00:16:02;;;;;;;13.07;4.75;;;;;;;;;;5048879;28;20017;-71
2023/07/08 00:18:28;;;;;;;10.77;4.85;;;;;;;;;;5050918;28;20037;-70
2023/07/08 00:20:54;;;;;;;8.85;5.35;;;;;;;;;;5034624;28;20072;-70
2023/07/08 00:23:21;;;;;;;8.10;4.70;;;;;;;;;;5048552;28;20431;-70
2023/07/08 00:25:48;;;;;;;9.32;4.88;;;;;;;;;;5030404;28;20039;-70
2023/07/08 00:28:19;;;;;;;7.07;4.68;;;;;;;;;;5034656;28;20029;-71
2023/07/08 00:30:47;;;;;;;6.47;4.45;;;;;;;;;;5032944;28;20016;-71
2023/07/08 00:33:13;;;;;;;8.00;5.38;;;;;;;;;;5031361;28;20053;-71
2023/07/08 00:35:40;;;;;;;7.80;4.90;;;;;;;;;;5046644;28;20702;-71
2023/07/08 00:38:28;;;;;;;8.77;5.30;;;;;;;;;;5050957;28;21744;-71
2023/07/08 00:41:03;;;;;;;8.55;5.07;;;;;;;;;;5054184;28;20033;-69
2023/07/08 00:43:33;;;;;;;15.82;5.22;;;;;;;;;;5031566;28;20021;-69
2023/07/08 00:46:06;;;;;;;12.13;5.28;;;;;;;;;;5042611;28;20126;-68
2023/07/08 00:48:35;;;;;;;9.80;4.90;;;;;;;;;;5051580;28;20033;-70
2023/07/08 00:51:01;;;;;;;9.48;5.15;;;;;;;;;;5051841;28;20111;-71
2023/07/08 00:53:28;;;;;;;9.57;5.25;;;;;;;;;;5049287;28;20052;-70
2023/07/08 00:55:57;;;;;;;7.80;4.90;;;;;;;;;;5037194;28;20444;-70
2023/07/08 00:58:24;;;;;;;8.00;5.28;;;;;;;;;;5047794;28;20096;-71
2023/07/08 01:00:51;;;;;;;11.80;5.60;;;;;;;;;;5030672;28;20048;-71
2023/07/08 01:03:18;;;;;;;15.52;5.88;;;;;;;;;;5048588;28;20102;-72
2023/07/08 01:05:44;;;;;;;7.85;5.13;;;;;;;;;;5032935;28;20029;-71
2023/07/08 01:08:10;;;;;;;10.73;5.78;;;;;;;;;;5048217;28;20049;-70
2023/07/08 01:10:39;;;;;;;9.23;5.78;;;;;;;;;;5029109;28;20492;-70
2023/07/08 01:13:08;;;;;;;9.82;5.40;;;;;;;;;;5048589;28;20033;-70
2023/07/08 01:15:38;;;;;;;10.38;5.13;;;;;;;;;;5050421;28;20084;-71
2023/07/08 01:18:04;;;;;;;7.60;5.30;;;;;;;;;;5048624;28;20021;-71
2023/07/08 01:20:30;;;;;;;8.20;5.40;;;;;;;;;;5045468;28;20112;-72
2023/07/08 01:22:56;;;;;;;9.75;5.18;;;;;;;;;;5043142;28;20017;-71
2023/07/08 01:25:23;;;;;;;10.38;5.30;;;;;;;;;;5014950;28;20097;-70
2023/07/08 01:27:52;;;;;;;10.80;5.80;;;;;;;;;;5040698;28;20360;-71
2023/07/08 01:30:18;;;;;;;12.88;5.28;;;;;;;;;;5032255;28;20021;-70
2023/07/08 01:32:47;;;;;;;13.80;5.30;;;;;;;;;;5030089;28;20029;-70
2023/07/08 01:35:14;;;;;;;7.45;5.10;;;;;;;;;;5049690;28;20056;-72
2023/07/08 01:37:42;;;;;;;8.02;5.45;;;;;;;;;;5030510;28;20041;-73
2023/07/08 01:40:24;;;;;;;7.63;5.25;;;;;;;;;;5030799;28;20060;-69
2023/07/08 01:42:50;;;;;;;8.23;5.85;;;;;;;;;;5051200;28;20025;-70
2023/07/08 01:45:18;;;;;;;9.50;5.45;;;;;;;;;;5032092;28;20029;-70
2023/07/08 01:47:47;;;;;;;9.13;5.82;;;;;;;;;;5048537;28;20024;-70
2023/07/08 01:50:14;;;;;;;10.65;5.32;;;;;;;;;;5047733;28;20048;-71
2023/07/08 01:52:40;;;;;;;11.15;6.00;;;;;;;;;;5014526;28;20033;-70
2023/07/08 01:55:06;;;;;;;10.35;6.18;;;;;;;;;;5028659;28;20029;-70
2023/07/08 01:57:33;;;;;;;8.35;5.38;;;;;;;;;;5048143;28;20131;-70
2023/07/08 01:59:59;;;;;;;13.40;5.20;;;;;;;;;;5013103;28;20033;-71
2023/07/08 02:02:25;;;;;;;11.32;5.65;;;;;;;;;;5026118;28;20123;-71
2023/07/08 02:04:51;;;;;;;9.80;6.22;;;;;;;;;;5024010;28;20082;-71
2023/07/08 02:07:18;;;;;;;8.80;5.72;;;;;;;;;;5049049;28;20044;-71
2023/07/08 02:09:44;;;;;;;11.32;5.93;;;;;;;;;;5015754;28;20398;-71
2023/07/08 02:12:10;;;;;;;7.88;5.95;;;;;;;;;;5041552;28;20052;-70
2023/07/08 02:14:37;;;;;;;7.30;5.82;;;;;;;;;;5016373;28;20075;-71
2023/07/08 02:17:05;;;;;;;7.60;5.78;;;;;;;;;;5027968;28;20052;-71
2023/07/08 02:19:31;;;;;;;15.60;6.00;;;;;;;;;;5013720;28;20044;-71
2023/07/08 02:21:57;;;;;;;11.98;5.82;;;;;;;;;;5026094;28;20029;-71
2023/07/08 02:24:24;;;;;;;10.13;5.85;;;;;;;;;;5038155;28;20060;-71
2023/07/08 02:26:50;;;;;;;9.90;5.72;;;;;;;;;;5024598;28;20477;-70
2023/07/08 02:29:16;;;;;;;9.43;5.78;;;;;;;;;;5052335;28;20033;-70
2023/07/08 02:31:43;;;;;;;10.48;6.00;;;;;;;;;;5049473;28;20025;-71
2023/07/08 02:34:09;;;;;;;8.02;5.28;;;;;;;;;;5045623;28;20040;-70
2023/07/08 02:36:36;;;;;;;13.55;6.28;;;;;;;;;;5042417;28;20116;-70
2023/07/08 02:39:02;;;;;;;9.57;5.88;;;;;;;;;;5048043;28;20452;-72
2023/07/08 02:41:29;;;;;;;10.95;6.80;;;;;;;;;;5047664;28;20028;-70
2023/07/08 02:43:55;;;;;;;9.07;6.10;;;;;;;;;;5028193;28;20104;-70
2023/07/08 02:46:21;;;;;;;11.07;6.25;;;;;;;;;;5045479;28;20028;-71
2023/07/08 02:48:47;;;;;;;10.68;6.10;;;;;;;;;;5029369;28;20029;-70
2023/07/08 02:51:13;;;;;;;17.20;6.53;;;;;;;;;;5045848;28;20106;-71
2023/07/08 02:53:39;;;;;;;10.85;6.43;;;;;;;;;;5029141;28;20037;-70
2023/07/08 02:56:05;;;;;;;8.68;6.28;;;;;;;;;;5025149;28;20052;-71
2023/07/08 02:58:32;;;;;;;15.27;6.72;;;;;;;;;;5048773;28;20029;-71
2023/07/08 03:00:59;;;;;;;9.85;6.28;;;;;;;;;;5044759;28;20106;-71
2023/07/08 03:03:25;;;;;;;9.40;6.72;;;;;;;;;;5029677;28;20123;-71
2023/07/08 03:05:58;;;;;;;11.00;6.38;;;;;;;;;;5045983;28;20047;-70
2023/07/08 03:08:25;;;;;;;11.13;6.63;;;;;;;;;;5027426;28;20052;-71
2023/07/08 03:10:55;;;;;;;10.60;6.07;;;;;;;;;;5043958;28;20052;-70
2023/07/08 03:13:21;;;;;;;11.00;6.85;;;;;;;;;;5045057;28;20389;-70
2023/07/08 03:15:47;;;;;;;9.18;6.32;;;;;;;;;;5042833;28;20037;-70
2023/07/08 03:18:13;;;;;;;11.98;6.00;;;;;;;;;;5026964;28;20029;-70
2023/07/08 03:20:40;;;;;;;8.85;6.05;;;;;;;;;;5030455;28;20067;-70
2023/07/08 03:23:06;;;;;;;12.43;6.35;;;;;;;;;;5030956;28;20029;-70
2023/07/08 03:25:33;;;;;;;10.90;6.20;;;;;;;;;;5048895;28;20040;-71
2023/07/08 03:27:59;;;;;;;8.55;6.15;;;;;;;;;;5030554;28;20075;-70
2023/07/08 03:30:27;;;;;;;10.88;6.65;;;;;;;;;;5029176;28;20123;-70
2023/07/08 03:32:54;;;;;;;12.05;6.75;;;;;;;;;;5043354;28;20025;-71
2023/07/08 03:35:22;;;;;;;9.07;6.60;;;;;;;;;;5046087;28;20390;-71
2023/07/08 03:37:48;;;;;;;9.50;6.60;;;;;;;;;;5026946;28;20061;-71
2023/07/08 03:40:14;;;;;;;13.05;6.30;;;;;;;;;;5047346;28;20082;-71
2023/07/08 03:42:40;;;;;;;9.40;6.72;;;;;;;;;;5029415;28;20101;-71
2023/07/08 03:45:07;;;;;;;10.18;6.32;;;;;;;;;;5047091;28;20044;-72
2023/07/08 03:47:33;;;;;;;9.27;6.47;;;;;;;;;;5045110;28;20029;-70
2023/07/08 03:50:00;;;;;;;10.93;6.78;;;;;;;;;;5027062;28;20117;-70
2023/07/08 03:52:26;;;;;;;11.45;6.50;;;;;;;;;;5048091;28;20036;-70
2023/07/08 03:54:52;;;;;;;9.88;6.22;;;;;;;;;;5012429;28;20072;-71
2023/07/08 03:57:18;;;;;;;14.48;6.70;;;;;;;;;;5042757;28;20048;-69
2023/07/08 03:59:47;;;;;;;12.10;6.38;;;;;;;;;;5024840;28;20115;-70
2023/07/08 04:02:32;;;;;;;12.13;6.07;;;;;;;;;;5021667;28;20053;-70
2023/07/08 04:04:58;;;;;;;8.40;6.18;;;;;;;;;;5023456;28;20035;-70
2023/07/08 04:07:24;;;;;;;8.98;6.13;;;;;;;;;;5045609;28;20136;-70
2023/07/08 04:09:51;;;;;;;10.80;6.10;;;;;;;;;;5010412;28;20374;-71
2023/07/08 04:12:18;;;;;;;13.13;6.40;;;;;;;;;;5046360;28;20029;-71
2023/07/08 04:14:44;;;;;;;10.10;6.88;;;;;;;;;;5048850;28;20037;-70
2023/07/08 04:17:12;;;;;;;10.07;6.30;;;;;;;;;;5050724;28;20033;-71
2023/07/08 04:19:43;;;;;;;10.23;6.05;;;;;;;;;;5032500;28;20044;-71
2023/07/08 04:22:10;;;;;;;9.07;6.25;;;;;;;;;;5025079;28;20049;-71
2023/07/08 04:24:36;;;;;;;12.68;6.43;;;;;;;;;;5045418;28;20489;-71
2023/07/08 04:27:03;;;;;;;9.80;6.00;;;;;;;;;;5048572;28;21090;-70
2023/07/08 04:29:29;;;;;;;9.65;6.10;;;;;;;;;;5045321;28;20033;-70
2023/07/08 04:31:55;;;;;;;12.60;6.55;;;;;;;;;;5026008;28;20025;-70
2023/07/08 04:34:22;;;;;;;9.43;6.00;;;;;;;;;;5023654;28;20033;-71
2023/07/08 04:36:48;;;;;;;12.27;5.97;;;;;;;;;;5046530;28;20399;-70
2023/07/08 04:39:14;;;;;;;14.77;5.60;;;;;;;;;;5048168;28;20115;-69
2023/07/08 04:41:41;;;;;;;14.88;6.10;;;;;;;;;;5026730;28;20087;-69
2023/07/08 04:44:07;;;;;;;10.38;5.47;;;;;;;;;;5044049;28;20069;-69
2023/07/08 04:46:34;;;;;;;7.78;5.07;;;;;;;;;;5047319;28;20058;-70
2023/07/08 04:49:01;;;;;;;11.40;6.20;;;;;;;;;;5027428;28;20140;-71
2023/07/08 04:51:28;;;;;;;7.65;5.28;;;;;;;;;;5039637;28;20025;-70
2023/07/08 04:53:54;;;;;;;9.52;5.18;;;;;;;;;;5045124;28;20056;-71
2023/07/08 04:56:20;;;;;;;7.80;5.40;;;;;;;;;;5038039;28;20041;-71
2023/07/08 04:58:47;;;;;;;26.92;5.90;;;;;;;;;;5044267;28;20115;-72
2023/07/08 05:01:13;;;;;;;6.97;4.80;;;;;;;;;;5044595;28;20033;-71
2023/07/08 05:03:39;;;;;;;9.85;4.88;;;;;;;;;;5028710;28;20078;-71
2023/07/08 05:06:07;;;;;;;12.55;5.40;;;;;;;;;;5050858;28;20662;-72
2023/07/08 05:08:33;;;;;;;10.25;5.10;;;;;;;;;;5051252;28;20743;-71
2023/07/08 05:10:59;;;;;;;10.23;5.10;;;;;;;;;;5050989;28;20161;-71
2023/07/08 05:13:25;;;;;;;6.63;4.78;;;;;;;;;;5049302;28;20047;-71
2023/07/08 05:15:51;;;;;;;10.18;5.10;;;;;;;;;;5032279;28;20025;-71
2023/07/08 05:18:18;;;;;;;8.82;5.05;;;;;;;;;;5051163;28;20033;-72
2023/07/08 05:20:50;;;;;;;12.48;4.90;;;;;;;;;;5030098;28;20450;-71
2023/07/08 05:23:17;;;;;;;8.55;4.90;;;;;;;;;;5049817;28;20032;-71
2023/07/08 05:25:43;;;;;;;10.23;4.78;;;;;;;;;;5051745;28;20052;-71
2023/07/08 05:28:09;;;;;;;10.30;5.22;;;;;;;;;;5049308;28;20060;-70
2023/07/08 05:30:35;;;;;;;14.55;5.28;;;;;;;;;;5029725;28;20025;-70
2023/07/08 05:33:02;;;;;;;9.73;4.97;;;;;;;;;;5049004;28;20025;-70
2023/07/08 05:35:28;;;;;;;11.32;5.03;;;;;;;;;;5051774;28;20033;-71
2023/07/08 05:37:54;;;;;;;7.35;5.05;;;;;;;;;;5053377;28;20028;-72
2023/07/08 05:40:20;;;;;;;7.93;4.82;;;;;;;;;;5044610;28;20457;-72
2023/07/08 05:42:46;;;;;;;7.85;4.95;;;;;;;;;;5045373;28;20029;-71
2023/07/08 05:45:13;;;;;;;6.53;4.40;;;;;;;;;;5025298;28;20029;-71
2023/07/08 05:47:39;;;;;;;7.93;4.70;;;;;;;;;;5027680;28;20033;-72
2023/07/08 05:50:05;;;;;;;7.53;4.82;;;;;;;;;;5048615;28;20040;-72
2023/07/08 05:52:31;;;;;;;6.40;4.28;;;;;;;;;;5031800;28;20052;-69
2023/07/08 05:54:57;;;;;;;7.88;3.97;;;;;;;;;;5029426;28;20057;-72
2023/07/08 05:57:23;;;;;;;6.43;4.32;;;;;;;;;;5028478;28;20045;-68
2023/07/08 05:59:50;;;;;;;9.80;4.80;;;;;;;;;;5040880;28;20036;-69
2023/07/08 06:02:21;;;;;;;11.88;4.57;;;;;;;;;;5040000;28;20041;-69
2023/07/08 06:04:47;;;;;;;10.18;4.70;;;;;;;;;;5049712;28;20037;-69
2023/07/08 06:07:13;;;;;;;5.95;3.75;;;;;;;;;;5051168;28;20108;-69
2023/07/08 06:09:40;;;;;;;7.43;4.15;;;;;;;;;;5009384;28;20056;-69
2023/07/08 06:12:06;;;;;;;9.82;4.22;;;;;;;;;;5046776;28;20072;-69
2023/07/08 06:14:32;;;;;;;9.82;4.10;;;;;;;;;;5046963;28;20037;-69
2023/07/08 06:16:59;;;;;;;11.02;4.20;;;;;;;;;;5048268;28;20717;-69
2023/07/08 06:19:25;;;;;;;10.88;4.43;;;;;;;;;;5040746;28;20033;-69
2023/07/08 06:21:52;;;;;;;9.10;4.20;;;;;;;;;;5041809;28;20056;-69
2023/07/08 06:24:18;;;;;;;10.73;4.35;;;;;;;;;;5030683;28;20048;-69
2023/07/08 06:26:44;;;;;;;10.55;4.20;;;;;;;;;;5045590;28;20044;-71
2023/07/08 06:29:10;;;;;;;7.82;3.92;;;;;;;;;;5010313;28;20033;-69
2023/07/08 06:31:36;;;;;;;8.63;4.43;;;;;;;;;;5026262;28;20035;-70
2023/07/08 06:34:03;;;;;;;7.53;4.30;;;;;;;;;;5030161;28;20017;-71
2023/07/08 06:36:30;;;;;;;7.97;3.88;;;;;;;;;;5025954;28;20031;-69
2023/07/08 06:38:56;;;;;;;5.50;3.60;;;;;;;;;;5044917;28;20029;-69
2023/07/08 06:41:22;;;;;;;6.40;3.92;;;;;;;;;;5039841;28;20071;-69
2023/07/08 06:43:49;;;;;;;9.00;3.70;;;;;;;;;;5045407;28;20064;-67
2023/07/08 06:46:21;;;;;;;7.70;4.00;;;;;;;;;;5047388;28;20037;-68
2023/07/08 06:48:47;;;;;;;6.20;3.75;;;;;;;;;;5047950;28;20095;-69
2023/07/08 06:51:13;;;;;;;5.65;3.70;;;;;;;;;;5031378;28;20029;-70
2023/07/08 06:53:39;;;;;;;6.80;3.25;;;;;;;;;;5048850;28;20076;-71
2023/07/08 06:56:05;;;;;;;6.65;3.65;;;;;;;;;;5042058;28;20029;-72
2023/07/08 06:58:31;;;;;;;12.48;3.53;;;;;;;;;;5031929;28;20052;-69
2023/07/08 07:00:57;;;;;;;6.53;3.67;;;;;;;;;;5036068;28;20131;-70
2023/07/08 07:03:24;;;;;;;9.60;4.28;;;;;;;;;;5027897;28;20456;-70
2023/07/08 07:05:50;;;;;;;7.85;3.92;;;;;;;;;;5048214;28;20045;-69
2023/07/08 07:08:16;;;;;;;10.38;4.15;;;;;;;;;;5048896;28;20183;-70
2023/07/08 07:10:42;;;;;;;7.28;3.85;;;;;;;;;;5047454;28;20041;-71
2023/07/08 07:13:09;;;;;;;8.05;3.95;;;;;;;;;;5047044;28;20040;-70
2023/07/08 07:15:35;;;;;;;8.05;3.97;;;;;;;;;;5047017;28;20078;-69
2023/07/08 07:18:02;;;;;;;6.63;3.40;;;;;;;;;;5014385;28;20036;-69
2023/07/08 07:20:29;;;;;;;11.30;4.10;;;;;;;;;;5029945;28;20056;-70
2023/07/08 07:22:55;;;;;;;9.40;3.67;;;;;;;;;;5049007;28;20033;-71
2023/07/08 07:25:21;;;;;;;6.95;3.40;;;;;;;;;;5046686;28;20079;-69
2023/07/08 07:27:47;;;;;;;10.32;3.67;;;;;;;;;;5049226;28;20123;-70
2023/07/08 07:30:15;;;;;;;9.80;4.38;;;;;;;;;;5048337;28;20044;-70
2023/07/08 07:32:42;;;;;;;9.57;4.18;;;;;;;;;;5048560;28;20505;-71
2023/07/08 07:35:12;;;;;;;11.75;3.78;;;;;;;;;;5038077;28;20037;-71
2023/07/08 07:37:39;;;;;;;8.60;4.00;;;;;;;;;;5049031;28;20025;-70
2023/07/08 07:40:12;;;;;;;7.70;4.00;;;;;;;;;;5046826;28;20194;-70
2023/07/08 07:42:39;;;;;;;7.43;4.13;;;;;;;;;;5062600;28;20477;-70
2023/07/08 07:45:05;;;;;;;15.63;4.85;;;;;;;;;;5048352;28;20044;-70
2023/07/08 07:47:31;;;;;;;12.65;4.15;;;;;;;;;;5049491;28;20017;-70
2023/07/08 07:49:58;;;;;;;10.25;4.03;;;;;;;;;;5049822;28;20055;-70
2023/07/08 07:52:27;;;;;;;12.25;4.20;;;;;;;;;;5031822;28;20064;-70
2023/07/08 07:54:53;;;;;;;9.75;3.83;;;;;;;;;;5048254;28;20063;-70
2023/07/08 07:57:20;;;;;;;15.88;4.28;;;;;;;;;;5028631;28;20029;-71
2023/07/08 07:59:47;;;;;;;21.15;4.70;;;;;;;;;;5049569;28;20032;-71
2023/07/08 08:02:13;;;;;;;6.32;4.30;;;;;;;;;;5048230;28;20060;-70
2023/07/08 08:04:39;;;;;;;8.90;4.10;;;;;;;;;;5047300;28;20131;-70
2023/07/08 08:07:05;;;;;;;5.90;4.30;;;;;;;;;;5043664;28;20132;-69
2023/07/08 08:09:31;;;;;;;8.10;4.25;;;;;;;;;;5012963;28;20072;-70
2023/07/08 08:11:58;;;;;;;7.32;4.45;;;;;;;;;;5039958;28;20025;-70
2023/07/08 08:14:24;;;;;;;6.97;4.63;;;;;;;;;;5020903;28;20110;-70
2023/07/08 08:16:50;;;;;;;8.85;4.28;;;;;;;;;;5044114;28;20041;-69
2023/07/08 08:19:16;;;;;;;11.38;4.50;;;;;;;;;;5046611;28;20104;-68
2023/07/08 08:21:42;;;;;;;10.43;4.35;;;;;;;;;;5041606;28;20150;-70
2023/07/08 08:24:08;;;;;;;9.80;4.20;;;;;;;;;;5045112;28;20075;-70
2023/07/08 08:26:34;;;;;;;8.68;4.38;;;;;;;;;;5044491;28;20033;-70
2023/07/08 08:29:01;;;;;;;9.88;4.95;;;;;;;;;;5035247;28;20026;-68
2023/07/08 08:31:28;;;;;;;12.63;4.75;;;;;;;;;;5038958;28;20043;-71
2023/07/08 08:33:55;;;;;;;9.52;4.90;;;;;;;;;;5049857;28;20033;-68
2023/07/08 08:36:21;;;;;;;10.25;4.93;;;;;;;;;;5046003;28;20055;-69
2023/07/08 08:38:47;;;;;;;10.38;4.40;;;;;;;;;;5045347;28;20064;-69
2023/07/08 08:41:15;;;;;;;9.32;5.30;;;;;;;;;;5052536;28;20059;-69
2023/07/08 08:43:45;;;;;;;14.13;5.03;;;;;;;;;;5050283;28;20109;-69
2023/07/08 08:46:23;;;;;;;12.15;5.20;;;;;;;;;;5050149;28;20032;-71
2023/07/08 08:48:56;;;;;;;11.02;5.05;;;;;;;;;;5049774;28;20032;-70
2023/07/08 08:51:22;;;;;;;22.38;5.70;;;;;;;;;;5050910;28;20044;-69
2023/07/08 08:53:49;;;;;;;8.48;4.50;;;;;;;;;;5051692;28;20037;-69
2023/07/08 08:56:21;;;;;;;5.43;4.35;;;;;;;;;;5048156;28;20025;-69
2023/07/08 08:58:52;;;;;;;8.85;4.35;;;;;;;;;;5050591;28;20496;-69
2023/07/08 09:01:19;;;;;;;9.02;4.80;;;;;;;;;;5019604;28;20036;-69
2023/07/08 09:04:04;;;;;;;9.10;5.00;;;;;;;;;;5050054;28;20040;-70
2023/07/08 09:06:34;;;;;;;8.43;5.30;;;;;;;;;;5040867;28;20035;-70
2023/07/08 09:09:06;;;;;;;8.02;4.75;;;;;;;;;;5050661;28;20045;-70
2023/07/08 09:12:02;;;;;;;10.35;5.20;;;;;;;;;;5047870;28;20394;-70
2023/07/08 09:14:29;;;;;;;8.80;5.10;;;;;;;;;;5022614;28;20148;-71
2023/07/08 09:17:11;;;;;;;10.88;5.38;;;;;;;;;;5041680;28;20117;-71
2023/07/08 09:19:40;;;;;;;7.90;5.70;;;;;;;;;;5045956;28;20132;-71
2023/07/08 09:22:13;;;;;;;8.88;5.25;;;;;;;;;;5035925;28;20067;-70
2023/07/08 09:24:58;;;;;;;9.98;4.90;;;;;;;;;;5049469;28;20063;-69
2023/07/08 09:27:24;;;;;;;10.93;5.20;;;;;;;;;;5048425;28;20029;-71
2023/07/08 09:29:50;;;;;;;9.75;5.20;;;;;;;;;;5045416;28;20152;-70
2023/07/08 09:32:20;;;;;;;12.10;5.75;;;;;;;;;;5048703;28;20033;-72
2023/07/08 09:34:50;;;;;;;12.30;5.65;;;;;;;;;;5046126;28;20056;-71
2023/07/08 09:37:27;;;;;;;8.07;5.60;;;;;;;;;;5031175;28;20440;-70
2023/07/08 09:39:54;;;;;;;13.13;5.80;;;;;;;;;;5036254;28;20033;-71
2023/07/08 09:42:22;;;;;;;11.15;5.78;;;;;;;;;;5040368;28;20036;-70
2023/07/08 09:44:48;;;;;;;11.73;5.40;;;;;;;;;;5050313;28;20021;-69
2023/07/08 09:47:32;;;;;;;11.50;5.80;;;;;;;;;;5049442;28;20099;-69
2023/07/08 09:49:59;;;;;;;10.70;5.78;;;;;;;;;;5041120;28;20031;-70
2023/07/08 09:52:25;;;;;;;12.70;6.32;;;;;;;;;;5049129;28;20029;-71
2023/07/08 09:54:51;;;;;;;9.23;5.55;;;;;;;;;;5032787;28;20128;-70
2023/07/08 09:57:31;;;;;;;8.40;6.07;;;;;;;;;;5048709;28;20490;-70
2023/07/08 09:59:59;;;;;;;10.65;6.18;;;;;;;;;;5048346;28;20032;-70
2023/07/08 10:02:34;;;;;;;9.40;5.60;;;;;;;;;;5045817;28;20033;-70
2023/07/08 10:05:01;;;;;;;13.32;6.85;;;;;;;;;;5038162;28;20032;-70
2023/07/08 10:07:31;;;;;;;16.50;6.45;;;;;;;;;;5047190;28;20055;-69
2023/07/08 10:09:59;;;;;;;9.82;6.60;;;;;;;;;;5049012;28;20057;-72
2023/07/08 10:12:26;;;;;;;8.95;6.30;;;;;;;;;;5045657;28;20025;-71
2023/07/08 10:14:58;;;;;;;11.95;7.05;;;;;;;;;;5050430;28;20040;-71
2023/07/08 10:17:25;;;;;;;10.48;6.30;;;;;;;;;;5031693;28;20036;-72
2023/07/08 10:19:51;;;;;;;9.23;6.20;;;;;;;;;;5049462;28;20489;-71
2023/07/08 10:22:26;;;;;;;9.25;6.47;;;;;;;;;;5047643;28;20063;-71
2023/07/08 10:24:52;;;;;;;14.73;7.05;;;;;;;;;;5048248;28;20037;-70
2023/07/08 10:27:24;;;;;;;9.73;6.63;;;;;;;;;;5047312;28;20025;-71
2023/07/08 10:30:00;;;;;;;10.15;6.15;;;;;;;;;;5035777;28;20037;-70
2023/07/08 10:32:41;;;;;;;11.75;6.88;;;;;;;;;;5042714;28;20025;-70
2023/07/08 10:35:17;;;;;;;11.38;7.40;;;;;;;;;;5033058;28;20123;-70
2023/07/08 10:37:52;;;;;;;9.65;6.97;;;;;;;;;;5047885;28;20036;-72
2023/07/08 10:40:18;;;;;;;14.27;6.93;;;;;;;;;;5048935;28;20640;-70
2023/07/08 10:42:44;;;;;;;10.38;6.68;;;;;;;;;;5049801;28;20037;-71
2023/07/08 10:45:21;;;;;;;8.57;6.80;;;;;;;;;;5032452;28;20040;-70
2023/07/08 10:47:59;;;;;;;14.27;7.18;;;;;;;;;;5048573;28;20033;-70
2023/07/08 10:50:25;;;;;;;13.07;6.95;;;;;;;;;;5010727;28;20493;-69
2023/07/08 10:53:00;;;;;;;10.52;7.03;;;;;;;;;;5049034;28;20029;-69
2023/07/08 10:55:33;;;;;;;13.85;6.68;;;;;;;;;;5049643;28;20075;-68
2023/07/08 10:58:02;;;;;;;15.13;7.05;;;;;;;;;;5046694;28;20033;-70
2023/07/08 11:00:33;;;;;;;11.70;6.20;;;;;;;;;;5045604;28;20024;-69
2023/07/08 11:03:05;;;;;;;11.90;5.93;;;;;;;;;;5047292;28;20021;-70
2023/07/08 11:05:37;;;;;;;9.93;5.90;;;;;;;;;;5045487;28;20028;-71
2023/07/08 11:08:09;;;;;;;9.70;6.40;;;;;;;;;;5047195;28;20057;-70
2023/07/08 11:10:58;;;;;;;9.73;6.40;;;;;;;;;;5040544;28;20029;-72
2023/07/08 11:13:26;;;;;;;11.05;6.45;;;;;;;;;;5041497;28;20052;-71
2023/07/08 11:15:58;;;;;;;9.50;6.13;;;;;;;;;;5032996;28;20025;-71
2023/07/08 11:18:36;;;;;;;10.40;6.20;;;;;;;;;;5045772;28;20078;-71
2023/07/08 11:21:02;;;;;;;9.32;6.80;;;;;;;;;;5047046;28;20082;-73
2023/07/08 11:23:34;;;;;;;11.88;6.93;;;;;;;;;;5028946;28;20563;-71
2023/07/08 11:26:24;;;;;;;10.18;6.22;;;;;;;;;;5041700;28;20112;-70
2023/07/08 11:28:51;;;;;;;13.68;6.75;;;;;;;;;;5018530;28;20506;-71
2023/07/08 11:31:18;;;;;;;8.65;6.50;;;;;;;;;;5046301;28;20056;-72
2023/07/08 11:33:44;;;;;;;10.77;6.50;;;;;;;;;;5047790;28;20036;-70
2023/07/08 11:36:11;;;;;;;9.10;6.65;;;;;;;;;;5030522;28;20043;-71
2023/07/08 11:38:39;;;;;;;11.30;7.00;;;;;;;;;;5048363;28;20021;-76
2023/07/08 11:41:13;;;;;;;9.85;7.10;;;;;;;;;;5028597;28;20037;-72
2023/07/08 11:43:50;;;;;;;9.32;6.57;;;;;;;;;;5044708;28;20025;-69
2023/07/08 11:46:30;;;;;;;13.93;7.60;;;;;;;;;;5045992;28;20056;-74
2023/07/08 11:48:56;;;;;;;;;;;;;;;;;;5047078;28;20037;-70
2023/07/08 11:51:27;;;;;;;8.73;6.70;;;;;;;;;;5046336;28;19963;-72
2023/07/08 11:54:01;;;;;;;12.70;7.05;;;;;;;;;;5046407;28;20040;-72
2023/07/08 11:56:27;;;;;;;15.23;6.57;;;;;;;;;;5043471;28;20067;-72
2023/07/08 11:59:06;;;;;;;16.95;6.72;;;;;;;;;;5038565;28;20033;-72
2023/07/08 12:01:35;;;;;;;10.65;7.32;;;;;;;;;;5046981;28;20041;-71
2023/07/08 12:04:16;;;;;;;8.88;6.75;;;;;;;;;;5051376;28;20029;-71
2023/07/08 12:06:44;;;;;;;10.48;6.38;;;;;;;;;;5046001;28;20025;-71
2023/07/08 12:09:23;;;;;;;11.77;7.05;;;;;;;;;;5048018;28;20486;-71
2023/07/08 12:11:52;;;;;;;16.30;7.65;;;;;;;;;;5050579;28;20056;-72
2023/07/08 12:14:19;;;;;;;11.18;6.75;;;;;;;;;;5054974;28;20044;-71
2023/07/08 12:16:45;;;;;;;10.75;7.55;;;;;;;;;;5052047;28;20709;-71
2023/07/08 12:19:14;;;;;;;11.95;6.90;;;;;;;;;;5050963;28;20352;-70
2023/07/08 12:21:41;;;;;;;11.93;6.90;;;;;;;;;;5044267;28;20033;-69
2023/07/08 12:24:11;;;;;;;8.98;6.78;;;;;;;;;;5043476;28;20652;-70
2023/07/08 12:26:37;;;;;;;10.98;7.03;;;;;;;;;;5043747;28;20048;-68
2023/07/08 12:29:03;;;;;;;12.85;7.38;;;;;;;;;;5042926;28;20064;-70
2023/07/08 12:31:31;;;;;;;15.68;7.93;;;;;;;;;;5024693;28;20033;-71
2023/07/08 12:33:58;;;;;;;9.50;6.78;;;;;;;;;;5051209;28;20123;-71
2023/07/08 12:36:28;;;;;;;10.48;7.25;;;;;;;;;;5033215;28;20106;-71
2023/07/08 12:38:58;;;;;;;10.02;6.85;;;;;;;;;;5047639;28;20068;-72
2023/07/08 12:41:26;;;;;;;13.07;6.85;;;;;;;;;;5048821;28;20842;-70
2023/07/08 12:43:52;;;;;;;10.25;6.90;;;;;;;;;;5031975;28;20041;-72
2023/07/08 12:46:19;;;;;;;12.77;6.88;;;;;;;;;;5051139;28;20515;-71
2023/07/08 12:48:45;;;;;;;11.00;7.22;;;;;;;;;;5051031;28;20033;-69
2023/07/08 12:51:13;;;;;;;14.65;7.18;;;;;;;;;;5060532;28;20108;-70
2023/07/08 12:53:40;;;;;;;11.05;6.47;;;;;;;;;;5053920;28;20032;-71
2023/07/08 12:56:06;;;;;;;9.98;6.32;;;;;;;;;;5042340;28;20660;-72
2023/07/08 12:58:37;;;;;;;13.93;6.50;;;;;;;;;;5051466;28;20413;-71
2023/07/08 13:01:04;;;;;;;12.88;6.85;;;;;;;;;;5026746;28;20243;-70
2023/07/08 13:03:32;;;;;;;12.98;6.90;;;;;;;;;;5050476;28;20040;-71
2023/07/08 13:05:59;;;;;;;12.40;6.15;;;;;;;;;;5049903;28;20021;-70
2023/07/08 13:08:28;;;;;;;11.65;6.80;;;;;;;;;;5048922;28;20041;-71
2023/07/08 13:10:58;;;;;;;11.82;7.22;;;;;;;;;;5049943;28;20021;-72
2023/07/08 13:13:30;;;;;;;7.97;6.45;;;;;;;;;;5049026;28;20031;-71
2023/07/08 13:15:57;;;;;;;8.73;6.43;;;;;;;;;;5048517;28;20020;-70
2023/07/08 13:18:26;;;;;;;9.40;7.10;;;;;;;;;;5051558;28;20021;-71
2023/07/08 13:20:54;;;;;;;8.60;5.65;;;;;;;;;;5052462;28;20055;-71
2023/07/08 13:23:21;;;;;;;14.32;6.40;;;;;;;;;;5045139;28;20067;-73
2023/07/08 13:25:51;;;;;;;12.07;6.50;;;;;;;;;;5054375;28;20501;-69
2023/07/08 13:28:19;;;;;;;9.68;5.85;;;;;;;;;;5039853;28;20124;-72
2023/07/08 13:31:01;;;;;;;13.57;6.97;;;;;;;;;;5053599;28;20119;-70
2023/07/08 13:33:34;;;;;;;11.32;6.97;;;;;;;;;;5049649;28;20082;-70
2023/07/08 13:36:04;;;;;;;11.88;6.50;;;;;;;;;;5051476;28;20040;-72
2023/07/08 13:38:35;;;;;;;10.02;6.13;;;;;;;;;;5039092;28;20023;-70
2023/07/08 13:41:03;;;;;;;9.93;6.05;;;;;;;;;;5043925;28;20086;-71
2023/07/08 13:43:31;;;;;;;12.63;6.50;;;;;;;;;;5048401;28;20100;-71
2023/07/08 13:45:57;;;;;;;8.50;6.13;;;;;;;;;;5038880;28;20056;-71
2023/07/08 13:48:26;;;;;;;11.15;6.55;;;;;;;;;;5050111;28;20033;-70
2023/07/08 13:50:54;;;;;;;15.88;6.78;;;;;;;;;;5050589;28;20082;-70
2023/07/08 13:53:26;;;;;;;12.18;6.40;;;;;;;;;;5049597;28;20037;-70
2023/07/08 13:56:00;;;;;;;10.40;6.28;;;;;;;;;;5050511;28;20028;-71
2023/07/08 13:58:28;;;;;;;9.13;6.30;;;;;;;;;;5030566;28;20033;-70
2023/07/08 14:00:55;;;;;;;9.15;6.30;;;;;;;;;;5051283;28;20021;-69
2023/07/08 14:03:21;;;;;;;13.45;6.78;;;;;;;;;;5053449;28;20075;-74
2023/07/08 14:05:48;;;;;;;9.98;6.55;;;;;;;;;;5035081;28;20067;-71
2023/07/08 14:08:15;;;;;;;12.50;7.30;;;;;;;;;;5049878;28;20103;-70
2023/07/08 14:10:41;;;;;;;11.05;6.55;;;;;;;;;;5048204;28;20028;-71
2023/07/08 14:13:07;;;;;;;12.32;6.57;;;;;;;;;;5045959;28;20342;-71
2023/07/08 14:15:34;;;;;;;12.00;6.03;;;;;;;;;;5030368;28;20040;-70
2023/07/08 14:18:03;;;;;;;16.80;6.43;;;;;;;;;;5047269;28;20025;-70
2023/07/08 14:20:29;;;;;;;12.13;6.53;;;;;;;;;;5045053;28;20111;-71
2023/07/08 14:22:56;;;;;;;12.60;7.03;;;;;;;;;;5047869;28;20044;-70
2023/07/08 14:25:23;;;;;;;15.20;6.97;;;;;;;;;;5045613;28;20501;-70
2023/07/08 14:27:52;;;;;;;9.65;6.07;;;;;;;;;;5045674;28;20052;-71
2023/07/08 14:30:19;;;;;;;10.82;6.57;;;;;;;;;;5046353;28;20123;-71
2023/07/08 14:32:45;;;;;;;13.55;6.57;;;;;;;;;;5048468;28;20032;-69
2023/07/08 14:35:28;;;;;;;12.45;6.85;;;;;;;;;;5045042;28;20040;-71
2023/07/08 14:37:55;;;;;;;9.35;6.63;;;;;;;;;;5048726;28;20072;-71
2023/07/08 14:40:27;;;;;;;11.00;6.72;;;;;;;;;;5048297;28;20486;-71
2023/07/08 14:43:04;;;;;;;11.88;6.80;;;;;;;;;;5045897;28;20025;-70